createdAt,value
2018-02-22T00:00:11.805Z,70.81
2018-02-22T00:02:40.945Z,70.96
2018-02-22T00:05:09.317Z,71.35
2018-02-22T00:07:37.652Z,71.25
2018-02-22T00:10:06.913Z,71.26
2018-02-22T00:12:35.253Z,70.80
2018-02-22T00:15:03.615Z,70.82
2018-02-22T00:17:32.761Z,70.59
2018-02-22T00:20:01.204Z,70.85
2018-02-22T00:22:29.597Z,70.92
2018-02-22T00:24:58.004Z,70.83
2018-02-22T00:27:26.346Z,70.85
2018-02-22T00:29:54.706Z,70.63
2018-02-22T00:32:23.083Z,70.76
2018-02-22T00:34:52.303Z,70.88
2018-02-22T00:37:20.753Z,71.14
2018-02-22T00:39:49.054Z,71.24
2018-02-22T00:42:18.194Z,71.34
2018-02-22T00:44:46.499Z,70.97
2018-02-22T00:47:15.661Z,70.92
2018-02-22T00:49:44.034Z,71.39
2018-02-22T00:52:12.406Z,71.38
2018-02-22T00:54:40.703Z,71.25
2018-02-22T00:57:09.099Z,71.57
2018-02-22T00:59:37.525Z,71.10
2018-02-22T01:02:05.927Z,70.94
2018-02-22T01:04:34.270Z,71.38
2018-02-22T01:07:03.440Z,71.24
2018-02-22T01:09:31.824Z,71.63
2018-02-22T01:12:00.927Z,71.38
2018-02-22T01:14:30.005Z,71.31
2018-02-22T01:16:59.160Z,71.38
2018-02-22T01:19:27.538Z,71.50
2018-02-22T01:21:55.929Z,71.59
2018-02-22T01:24:24.335Z,71.40
2018-02-22T01:26:52.701Z,71.31
2018-02-22T01:29:21.114Z,70.87
2018-02-22T01:31:50.229Z,70.86
2018-02-22T01:34:18.612Z,71.29
2018-02-22T01:36:46.920Z,70.96
2018-02-22T01:39:15.297Z,70.96
2018-02-22T01:41:43.597Z,71.07
2018-02-22T01:44:12.676Z,71.43
2018-02-22T01:46:41.033Z,71.14
2018-02-22T01:49:09.444Z,71.11
2018-02-22T01:51:37.766Z,71.18
2018-02-22T01:54:06.122Z,71.48
2018-02-22T01:56:35.256Z,71.56
2018-02-22T01:59:03.659Z,71.55
2018-02-22T02:01:32.004Z,71.95
2018-02-22T02:04:00.400Z,71.74
2018-02-22T02:06:28.695Z,72.14
2018-02-22T02:11:31.762Z,71.54
2018-02-22T02:14:00.260Z,71.58
2018-02-22T02:16:28.646Z,71.30
2018-02-22T02:18:57.010Z,71.30
2018-02-22T02:21:25.325Z,71.20
2018-02-22T02:23:53.675Z,71.32
2018-02-22T02:26:22.084Z,71.44
2018-02-22T02:28:50.465Z,71.33
2018-02-22T02:31:18.816Z,71.52
2018-02-22T02:33:47.173Z,71.54
2018-02-22T02:36:15.546Z,71.44
2018-02-22T02:38:43.970Z,71.19
2018-02-22T02:41:12.329Z,71.49
2018-02-22T02:43:40.737Z,71.53
2018-02-22T02:46:09.104Z,71.77
2018-02-22T02:48:37.478Z,71.31
2018-02-22T02:51:06.629Z,71.44
2018-02-22T02:53:35.011Z,71.59
2018-02-22T02:56:03.426Z,72.22
2018-02-22T02:58:31.741Z,72.02
2018-02-22T03:01:00.182Z,71.74
2018-02-22T03:03:28.507Z,71.56
2018-02-22T03:05:57.630Z,71.84
2018-02-22T03:08:25.974Z,71.83
2018-02-22T03:10:55.032Z,72.22
2018-02-22T03:13:23.304Z,72.55
2018-02-22T03:15:51.595Z,72.34
2018-02-22T03:18:19.895Z,72.72
2018-02-22T03:20:48.952Z,72.87
2018-02-22T03:23:17.232Z,72.81
2018-02-22T03:25:45.512Z,72.80
2018-02-22T03:28:13.794Z,72.75
2018-02-22T03:30:42.187Z,72.92
2018-02-22T03:33:10.463Z,72.96
2018-02-22T03:35:38.759Z,73.02
2018-02-22T03:38:07.815Z,73.06
2018-02-22T03:40:36.106Z,72.70
2018-02-22T03:43:04.417Z,73.06
2018-02-22T03:45:32.700Z,73.05
2018-02-22T03:48:00.984Z,72.97
2018-02-22T03:50:29.246Z,73.19
2018-02-22T03:52:57.539Z,73.23
2018-02-22T03:55:25.830Z,72.82
2018-02-22T03:57:54.118Z,72.54
2018-02-22T04:00:22.416Z,72.65
2018-02-22T04:02:50.708Z,72.29
2018-02-22T04:05:19.738Z,72.74
2018-02-22T04:07:48.013Z,72.61
2018-02-22T04:10:16.283Z,72.53
2018-02-22T04:12:44.569Z,72.61
2018-02-22T04:15:12.835Z,72.11
2018-02-22T04:17:41.104Z,72.59
2018-02-22T04:20:09.387Z,72.41
2018-02-22T04:25:12.190Z,72.36
2018-02-22T04:27:40.467Z,72.00
2018-02-22T04:30:08.748Z,72.10
2018-02-22T04:32:37.022Z,72.04
2018-02-22T04:35:05.296Z,72.17
2018-02-22T04:37:33.553Z,72.43
2018-02-22T04:40:01.827Z,72.10
2018-02-22T04:42:30.087Z,72.48
2018-02-22T04:44:59.127Z,72.67
2018-02-22T04:47:27.423Z,72.78
2018-02-22T04:49:55.695Z,72.36
2018-02-22T04:52:24.012Z,72.45
2018-02-22T04:54:53.059Z,72.18
2018-02-22T04:57:21.340Z,72.21
2018-02-22T04:59:49.634Z,72.48
2018-02-22T05:02:17.900Z,72.72
2018-02-22T05:04:46.198Z,72.37
2018-02-22T05:07:14.506Z,71.98
2018-02-22T05:09:42.778Z,71.94
2018-02-22T05:12:11.080Z,71.79
2018-02-22T05:14:39.345Z,72.28
2018-02-22T05:17:07.652Z,72.33
2018-02-22T05:19:35.926Z,72.26
2018-02-22T05:22:04.986Z,72.24
2018-02-22T05:24:33.250Z,72.11
2018-02-22T05:27:01.564Z,72.12
2018-02-22T05:29:29.901Z,72.29
2018-02-22T05:31:58.943Z,72.48
2018-02-22T05:34:27.211Z,72.01
2018-02-22T05:36:55.534Z,72.38
2018-02-22T05:39:23.755Z,72.47
2018-02-22T05:41:52.037Z,72.31
2018-02-22T05:44:20.306Z,72.35
2018-02-22T05:46:48.582Z,72.19
2018-02-22T05:49:16.872Z,72.48
2018-02-22T05:51:45.155Z,72.73
2018-02-22T05:54:13.427Z,72.84
2018-02-22T05:56:41.709Z,72.78
2018-02-22T05:59:09.993Z,72.64
2018-02-22T06:01:38.258Z,73.13
2018-02-22T06:04:06.545Z,72.96
2018-02-22T06:06:34.825Z,72.91
2018-02-22T06:09:03.111Z,73.10
2018-02-22T06:11:31.386Z,72.93
2018-02-22T06:13:59.674Z,72.90
2018-02-22T06:16:28.735Z,72.84
2018-02-22T06:18:57.031Z,72.80
2018-02-22T06:21:25.312Z,73.07
2018-02-22T06:23:53.586Z,72.97
2018-02-22T06:26:21.863Z,73.06
2018-02-22T06:28:50.128Z,73.16
2018-02-22T06:31:18.394Z,72.89
2018-02-22T06:33:46.679Z,72.76
2018-02-22T06:36:14.956Z,72.26
2018-02-22T06:38:43.228Z,71.93
2018-02-22T06:41:11.494Z,72.01
2018-02-22T06:43:39.787Z,71.99
2018-02-22T06:46:08.054Z,71.55
2018-02-22T06:48:36.363Z,71.49
2018-02-22T06:51:05.390Z,71.24
2018-02-22T06:53:33.844Z,70.71
2018-02-22T06:56:02.347Z,70.58
2018-02-22T06:58:30.716Z,70.36
2018-02-22T07:00:59.048Z,70.34
2018-02-22T07:03:27.384Z,70.01
2018-02-22T07:05:55.760Z,69.75
2018-02-22T07:08:24.142Z,69.21
2018-02-22T07:10:52.478Z,68.73
2018-02-22T07:13:21.627Z,68.78
2018-02-22T07:15:49.933Z,68.69
2018-02-22T07:18:18.342Z,68.27
2018-02-22T07:20:46.755Z,68.10
2018-02-22T07:23:16.788Z,68.13
2018-02-22T07:25:43.514Z,67.83
2018-02-22T07:28:11.915Z,67.59
2018-02-22T07:30:40.334Z,67.08
2018-02-22T07:33:09.472Z,66.85
2018-02-22T07:35:37.803Z,66.88
2018-02-22T07:38:06.926Z,66.30
2018-02-22T07:40:35.288Z,66.35
2018-02-22T07:43:03.654Z,65.94
2018-02-22T07:45:32.773Z,65.35
2018-02-22T07:48:01.204Z,65.63
2018-02-22T07:50:29.609Z,64.76
2018-02-22T07:52:58.765Z,64.12
2018-02-22T07:55:27.142Z,64.25
2018-02-22T07:57:55.531Z,63.66
2018-02-22T08:00:23.914Z,63.34
2018-02-22T08:02:52.313Z,62.52
2018-02-22T08:05:21.435Z,62.60
2018-02-22T08:07:49.838Z,62.08
2018-02-22T08:10:18.228Z,62.08
2018-02-22T08:12:46.612Z,61.60
2018-02-22T08:15:14.986Z,61.64
2018-02-22T08:17:43.357Z,61.52
2018-02-22T08:20:11.885Z,59.87
2018-02-22T08:22:41.039Z,60.08
2018-02-22T08:25:10.207Z,59.50
2018-02-22T08:27:38.628Z,59.27
2018-02-22T08:30:07.107Z,59.28
2018-02-22T08:32:35.468Z,59.08
2018-02-22T08:35:03.814Z,58.58
2018-02-22T08:37:32.134Z,57.73
2018-02-22T08:40:00.523Z,57.89
2018-02-22T08:42:28.906Z,57.32
2018-02-22T08:44:57.277Z,56.90
2018-02-22T08:47:25.677Z,56.19
2018-02-22T08:49:54.874Z,55.82
2018-02-22T08:52:23.962Z,55.75
2018-02-22T08:54:52.408Z,55.37
2018-02-22T08:57:20.781Z,55.07
2018-02-22T08:59:49.196Z,54.80
2018-02-22T09:02:18.353Z,53.61
2018-02-22T09:04:46.794Z,53.59
2018-02-22T09:07:16.057Z,52.99
2018-02-22T09:09:44.539Z,53.63
2018-02-22T09:12:12.956Z,53.20
2018-02-22T09:14:42.076Z,53.21
2018-02-22T09:17:10.516Z,53.05
2018-02-22T09:19:39.762Z,52.53
2018-02-22T09:22:08.208Z,52.70
2018-02-22T09:24:37.394Z,51.93
2018-02-22T09:27:06.572Z,51.60
2018-02-22T09:29:35.019Z,51.64
2018-02-22T09:32:03.429Z,51.67
2018-02-22T09:34:31.893Z,51.05
2018-02-22T09:37:00.280Z,51.39
2018-02-22T09:39:28.725Z,50.73
2018-02-22T09:41:57.122Z,51.64
2018-02-22T09:44:26.260Z,51.43
2018-02-22T09:46:54.655Z,51.03
2018-02-22T09:49:23.091Z,51.19
2018-02-22T09:51:51.525Z,50.14
2018-02-22T09:54:19.928Z,50.07
2018-02-22T09:56:48.314Z,49.39
2018-02-22T09:59:16.777Z,48.64
2018-02-22T10:01:45.216Z,49.40
2018-02-22T10:04:14.420Z,48.65
2018-02-22T10:06:43.603Z,49.23
2018-02-22T10:09:12.804Z,48.67
2018-02-22T10:11:41.234Z,47.91
2018-02-22T10:14:09.718Z,47.60
2018-02-22T10:16:38.204Z,47.63
2018-02-22T10:19:06.625Z,47.05
2018-02-22T10:21:35.792Z,48.02
2018-02-22T10:24:04.220Z,47.33
2018-02-22T10:26:32.630Z,47.50
2018-02-22T10:29:01.636Z,47.11
2018-02-22T10:31:30.045Z,47.09
2018-02-22T10:33:58.447Z,47.30
2018-02-22T10:36:27.595Z,46.50
2018-02-22T10:38:55.962Z,46.79
2018-02-22T10:41:24.344Z,46.34
2018-02-22T10:43:52.716Z,45.86
2018-02-22T10:46:21.167Z,46.11
2018-02-22T10:48:49.590Z,46.25
2018-02-22T10:51:17.923Z,46.27
2018-02-22T10:53:46.275Z,45.41
2018-02-22T10:56:14.630Z,45.90
2018-02-22T10:58:42.954Z,46.02
2018-02-22T11:01:16.830Z,46.04
2018-02-22T11:03:45.248Z,44.79
2018-02-22T11:06:13.587Z,44.89
2018-02-22T11:08:41.930Z,44.40
2018-02-22T11:11:10.326Z,41.88
2018-02-22T11:13:38.698Z,41.52
2018-02-22T11:16:07.041Z,39.75
2018-02-22T11:18:35.344Z,38.87
2018-02-22T11:21:03.688Z,38.55
2018-02-22T11:23:32.017Z,38.72
2018-02-22T11:26:00.337Z,38.35
2018-02-22T11:28:28.671Z,38.17
2018-02-22T11:30:57.034Z,38.30
2018-02-22T11:33:25.379Z,37.06
2018-02-22T11:35:53.722Z,37.66
2018-02-22T11:38:22.063Z,37.50
2018-02-22T11:40:50.364Z,37.12
2018-02-22T11:43:18.673Z,37.37
2018-02-22T11:45:46.990Z,36.82
2018-02-22T11:48:15.289Z,35.94
2018-02-22T11:50:43.607Z,36.68
2018-02-22T11:53:11.938Z,36.00
2018-02-22T11:55:40.276Z,36.98
2018-02-22T11:58:08.683Z,36.84
2018-02-22T12:00:37.775Z,37.34
2018-02-22T12:03:06.100Z,37.29
2018-02-22T12:05:34.477Z,37.63
2018-02-22T12:08:02.759Z,36.56
2018-02-22T12:10:31.861Z,36.08
2018-02-22T12:13:00.962Z,37.04
2018-02-22T12:15:29.308Z,36.05
2018-02-22T12:17:57.631Z,35.37
2018-02-22T12:20:25.993Z,34.73
2018-02-22T12:22:54.296Z,34.90
2018-02-22T12:25:22.624Z,34.43
2018-02-22T12:27:51.762Z,35.88
2018-02-22T12:30:20.100Z,35.24
2018-02-22T12:32:48.398Z,35.32
2018-02-22T12:35:16.714Z,36.05
2018-02-22T12:37:45.026Z,37.29
2018-02-22T12:40:13.338Z,35.48
2018-02-22T12:42:41.666Z,35.83
2018-02-22T12:45:10.809Z,35.46
2018-02-22T12:47:39.150Z,34.92
2018-02-22T12:50:07.482Z,34.28
2018-02-22T12:52:35.819Z,32.75
2018-02-22T12:55:04.127Z,34.31
2018-02-22T12:57:32.474Z,33.60
2018-02-22T13:00:01.578Z,33.26
2018-02-22T13:02:30.666Z,33.20
2018-02-22T13:04:58.990Z,32.66
2018-02-22T13:07:27.311Z,33.48
2018-02-22T13:09:56.416Z,34.00
2018-02-22T13:12:25.515Z,32.57
2018-02-22T13:14:54.587Z,34.08
2018-02-22T13:17:22.898Z,33.41
2018-02-22T13:19:51.225Z,32.77
2018-02-22T13:22:19.608Z,32.48
2018-02-22T13:24:47.915Z,32.57
2018-02-22T13:27:16.988Z,32.90
2018-02-22T13:29:45.319Z,33.05
2018-02-22T13:32:13.638Z,34.22
2018-02-22T13:34:41.951Z,33.21
2018-02-22T13:40:46.235Z,33.47
2018-02-22T13:43:14.534Z,33.41
2018-02-22T13:45:42.834Z,33.25
2018-02-22T13:48:11.940Z,35.88
2018-02-22T13:50:57.861Z,34.12
2018-02-22T13:53:26.198Z,33.35
2018-02-22T13:55:54.528Z,31.97
2018-02-22T13:58:22.873Z,31.70
2018-02-22T14:01:09.030Z,34.41
2018-02-22T14:03:37.401Z,32.49
2018-02-22T14:06:05.725Z,31.74
2018-02-22T14:08:44.699Z,33.87
2018-02-22T14:11:13.037Z,33.46
2018-02-22T14:13:41.370Z,34.84
2018-02-22T14:16:09.675Z,35.25
2018-02-22T14:18:37.988Z,32.27
2018-02-22T14:21:06.323Z,34.04
2018-02-22T14:23:34.667Z,32.05
2018-02-22T14:26:02.999Z,32.90
2018-02-22T14:28:31.303Z,33.55
2018-02-22T14:31:00.399Z,32.86
2018-02-22T14:33:28.718Z,34.00
2018-02-22T14:35:57.058Z,33.12
2018-02-22T14:38:25.386Z,33.87
2018-02-22T14:40:53.730Z,34.58
2018-02-22T14:43:22.038Z,34.90
2018-02-22T14:45:50.346Z,34.33
2018-02-22T14:48:18.702Z,35.65
2018-02-22T14:50:47.837Z,34.66
2018-02-22T14:53:16.136Z,35.78
2018-02-22T14:55:44.469Z,34.81
2018-02-22T14:58:12.838Z,36.16
2018-02-22T15:00:41.167Z,35.26
2018-02-22T15:03:10.246Z,37.27
2018-02-22T15:05:38.580Z,35.97
2018-02-22T15:08:06.895Z,34.45
2018-02-22T15:10:35.244Z,37.44
2018-02-22T15:13:03.595Z,36.78
2018-02-22T15:15:31.923Z,36.96
2018-02-22T15:18:00.257Z,35.69
2018-02-22T15:20:28.588Z,36.97
2018-02-22T15:22:56.930Z,35.45
2018-02-22T15:25:25.260Z,36.55
2018-02-22T15:27:54.334Z,35.64
2018-02-22T15:30:22.679Z,35.92
2018-02-22T15:32:50.992Z,37.93
2018-02-22T15:35:19.412Z,37.58
2018-02-22T15:37:47.733Z,38.99
2018-02-22T15:40:16.080Z,39.28
2018-02-22T15:42:44.391Z,39.01
2018-02-22T15:45:12.708Z,38.88
2018-02-22T15:47:41.781Z,40.41
2018-02-22T15:50:10.092Z,42.17
2018-02-22T15:52:38.436Z,43.84
2018-02-22T15:55:06.758Z,46.04
2018-02-22T15:57:35.070Z,46.66
2018-02-22T16:00:03.415Z,46.45
2018-02-22T16:02:31.750Z,46.98
2018-02-22T16:05:00.875Z,47.73
2018-02-22T16:07:29.183Z,48.46
2018-02-22T16:09:57.533Z,48.55
2018-02-22T16:12:25.921Z,47.97
2018-02-22T16:14:54.241Z,48.93
2018-02-22T16:17:22.575Z,48.73
2018-02-22T16:19:50.951Z,48.94
2018-02-22T16:22:19.404Z,48.87
2018-02-22T16:24:47.741Z,49.26
2018-02-22T16:27:16.080Z,49.39
2018-02-22T16:29:44.462Z,49.45
2018-02-22T16:32:12.787Z,49.93
2018-02-22T16:34:41.105Z,50.12
2018-02-22T16:37:09.410Z,50.66
2018-02-22T16:39:37.804Z,50.76
2018-02-22T16:42:06.138Z,51.31
2018-02-22T16:44:34.462Z,51.32
2018-02-22T16:47:02.781Z,51.55
2018-02-22T16:49:31.131Z,51.84
2018-02-22T16:51:59.454Z,51.98
2018-02-22T16:54:27.830Z,52.27
2018-02-22T16:56:56.947Z,52.58
2018-02-22T16:59:25.287Z,52.75
2018-02-22T17:01:54.386Z,53.16
2018-02-22T17:04:22.729Z,53.09
2018-02-22T17:06:51.054Z,53.52
2018-02-22T17:09:19.462Z,53.56
2018-02-22T17:11:47.751Z,54.05
2018-02-22T17:14:16.090Z,53.95
2018-02-22T17:16:44.427Z,53.96
2018-02-22T17:19:13.526Z,53.85
2018-02-22T17:21:42.686Z,54.18
2018-02-22T17:24:11.117Z,53.96
2018-02-22T17:26:45.686Z,54.08
2018-02-22T17:29:19.638Z,54.36
2018-02-22T17:31:54.436Z,54.25
2018-02-22T17:34:22.777Z,54.33
2018-02-22T17:36:51.957Z,54.64
2018-02-22T17:39:26.683Z,54.56
2018-02-22T17:41:55.035Z,54.95
2018-02-22T17:44:23.340Z,54.73
2018-02-22T17:46:52.438Z,54.67
2018-02-22T17:49:20.778Z,54.68
2018-02-22T17:51:49.134Z,54.91
2018-02-22T17:54:17.458Z,55.40
2018-02-22T17:56:46.574Z,55.05
2018-02-22T17:59:14.898Z,55.00
2018-02-22T18:01:44.084Z,55.16
2018-02-22T18:04:12.404Z,55.12
2018-02-22T18:06:41.564Z,55.31
2018-02-22T18:09:09.983Z,55.28
2018-02-22T18:11:39.153Z,55.52
2018-02-22T18:14:07.503Z,55.21
2018-02-22T18:16:35.877Z,55.35
2018-02-22T18:19:04.268Z,55.25
2018-02-22T18:21:32.598Z,55.40
2018-02-22T18:24:01.790Z,55.41
2018-02-22T18:26:30.923Z,55.68
2018-02-22T18:28:59.315Z,55.46
2018-02-22T18:31:27.728Z,55.25
2018-02-22T18:33:56.095Z,55.75
2018-02-22T18:36:24.490Z,55.55
2018-02-22T18:38:58.310Z,55.85
2018-02-22T18:41:27.663Z,56.50
2018-02-22T18:44:01.519Z,56.02
2018-02-22T18:46:29.867Z,55.66
2018-02-22T18:48:58.979Z,55.72
2018-02-22T18:51:27.323Z,55.76
2018-02-22T18:53:55.639Z,55.44
2018-02-22T18:56:23.964Z,55.42
2018-02-22T18:58:52.303Z,55.12
2018-02-22T19:01:20.643Z,55.20
2018-02-22T19:03:48.885Z,55.06
2018-02-22T19:06:17.148Z,55.41
2018-02-22T19:08:45.407Z,55.45
2018-02-22T19:11:14.429Z,55.33
2018-02-22T19:13:42.678Z,55.42
2018-02-22T19:16:11.703Z,55.17
2018-02-22T19:18:39.950Z,55.17
2018-02-22T19:21:09.130Z,55.46
2018-02-22T19:23:38.157Z,55.30
2018-02-22T19:26:06.413Z,55.59
2018-02-22T19:28:35.444Z,55.42
2018-02-22T19:31:03.701Z,56.10
2018-02-22T19:33:31.955Z,56.24
2018-02-22T19:36:00.980Z,56.10
2018-02-22T19:38:29.226Z,55.92
2018-02-22T19:40:58.251Z,55.87
2018-02-22T19:43:26.509Z,56.20
2018-02-22T19:45:54.761Z,55.90
2018-02-22T19:48:23.020Z,56.02
2018-02-22T19:50:51.269Z,56.22
2018-02-22T19:53:19.525Z,56.37
2018-02-22T19:55:47.773Z,56.32
2018-02-22T19:58:16.802Z,56.41
2018-02-22T20:00:45.059Z,56.08
2018-02-22T20:03:13.326Z,56.02
2018-02-22T20:05:42.435Z,55.84
2018-02-22T20:08:10.696Z,56.03
2018-02-22T20:10:39.716Z,56.28
2018-02-22T20:13:07.971Z,56.21
2018-02-22T20:15:36.218Z,56.04
2018-02-22T20:18:04.477Z,56.26
2018-02-22T20:20:32.734Z,56.23
2018-02-22T20:23:00.990Z,56.18
2018-02-22T20:25:29.243Z,55.75
2018-02-22T20:27:58.314Z,55.74
2018-02-22T20:30:26.574Z,56.04
2018-02-22T20:32:54.913Z,55.55
2018-02-22T20:35:24.131Z,55.74
2018-02-22T20:37:52.480Z,55.73
2018-02-22T20:40:20.791Z,56.12
2018-02-22T20:42:49.141Z,56.37
2018-02-22T20:45:17.449Z,56.32
2018-02-22T20:47:45.832Z,56.43
2018-02-22T20:50:14.235Z,56.50
2018-02-22T20:52:54.269Z,56.62
2018-02-22T20:55:22.783Z,56.59
2018-02-22T20:57:51.921Z,56.68
2018-02-22T21:00:20.278Z,56.98
2018-02-22T21:02:48.653Z,57.25
2018-02-22T21:05:16.968Z,56.91
2018-02-22T21:07:46.096Z,57.03
2018-02-22T21:10:14.436Z,57.14
2018-02-22T21:12:42.814Z,57.25
2018-02-22T21:15:11.211Z,57.63
2018-02-22T21:17:39.646Z,57.70
2018-02-22T21:20:07.995Z,57.99
2018-02-22T21:22:37.145Z,57.87
2018-02-22T21:25:06.233Z,58.05
2018-02-22T21:27:34.565Z,57.89
2018-02-22T21:30:03.691Z,57.83
2018-02-22T21:32:32.006Z,58.09
2018-02-22T21:35:00.287Z,58.29
2018-02-22T21:37:28.635Z,57.91
2018-02-22T21:39:57.013Z,57.95
2018-02-22T21:42:26.086Z,57.65
2018-02-22T21:44:54.454Z,57.67
2018-02-22T21:47:23.536Z,57.72
2018-02-22T21:49:52.654Z,57.94
2018-02-22T21:52:20.979Z,57.77
2018-02-22T21:54:49.336Z,58.09
2018-02-22T21:57:17.729Z,57.92
2018-02-22T21:59:46.122Z,58.09
2018-02-22T22:02:14.479Z,58.08
2018-02-22T22:04:42.844Z,58.10
2018-02-22T22:07:11.156Z,58.20
2018-02-22T22:09:39.516Z,58.06
2018-02-22T22:12:07.890Z,58.04
2018-02-22T22:14:36.233Z,58.46
2018-02-22T22:17:04.580Z,58.76
2018-02-22T22:19:32.955Z,58.50
2018-02-22T22:22:01.328Z,58.52
2018-02-22T22:24:29.675Z,58.81
2018-02-22T22:26:58.032Z,58.88
2018-02-22T22:29:26.346Z,58.58
2018-02-22T22:31:54.690Z,58.77
2018-02-22T22:34:23.021Z,58.99
2018-02-22T22:36:51.343Z,59.14
2018-02-22T22:39:19.661Z,58.92
2018-02-22T22:41:48.023Z,59.01
2018-02-22T22:44:16.372Z,58.85
2018-02-22T22:46:44.682Z,58.92
2018-02-22T22:49:12.963Z,59.01
2018-02-22T22:51:41.277Z,58.87
2018-02-22T22:54:10.306Z,59.22
2018-02-22T22:56:38.568Z,59.06
2018-02-22T22:59:06.833Z,59.10
2018-02-22T23:01:35.849Z,59.40
2018-02-22T23:04:04.130Z,59.19
2018-02-22T23:06:32.400Z,59.13
2018-02-22T23:09:00.815Z,59.13
2018-02-22T23:11:29.151Z,59.47
2018-02-22T23:13:57.483Z,59.40
2018-02-22T23:16:25.782Z,59.53
2018-02-22T23:18:54.956Z,59.57
2018-02-22T23:21:23.307Z,59.80
2018-02-22T23:23:51.645Z,59.98
2018-02-22T23:26:19.986Z,60.08
2018-02-22T23:28:48.295Z,59.87
2018-02-22T23:31:16.652Z,59.95
2018-02-22T23:33:45.732Z,59.95
2018-02-22T23:36:14.080Z,60.23
2018-02-22T23:38:42.506Z,60.30
2018-02-22T23:41:13.531Z,60.46
2018-02-22T23:43:41.848Z,60.44
2018-02-22T23:46:10.178Z,60.56
2018-02-22T23:48:38.522Z,60.70
2018-02-22T23:51:06.882Z,60.90
2018-02-22T23:53:35.230Z,60.78
2018-02-22T23:56:04.303Z,60.43
2018-02-22T23:58:32.714Z,60.58
